Time;durP1;ratioP1;P1;durP2;ratioP2;P2;SDS_P1;SDS_P2;PMS_P1;PMS_P2;Temp;Humidity;BMP_temperature;BMP_pressure;BME280_temperature;BME280_humidity;BME280_pressure;Samples;Min_cycle;Max_cycle;Signal;HPM_P1;HPM_P2
2023/05/18 00:00:18;;;;;;;10.38;3.00;;;6.80;99.90;;;;;;4896801;29;20154;-89
2023/05/18 00:03:05;;;;;;;11.65;3.35;;;6.00;99.90;;;;;;4895955;29;20055;-89
2023/05/18 00:05:32;;;;;;;10.38;2.92;;;5.50;99.90;;;;;;4895110;29;20565;-89
2023/05/18 00:08:00;;;;;;;11.02;2.97;;;6.70;99.90;;;;;;4896248;29;20149;-90
2023/05/18 00:10:38;;;;;;;8.45;2.97;;;5.80;99.90;;;;;;4897328;29;20059;-89
2023/05/18 00:13:04;;;;;;;12.10;2.85;;;6.00;99.90;;;;;;4894042;29;20100;-89
2023/05/18 00:15:29;;;;;;;13.15;3.45;;;5.60;99.90;;;;;;4899980;29;20385;-90
2023/05/18 00:18:13;;;;;;;12.30;2.87;;;6.30;99.90;;;;;;4901371;29;20051;-90
2023/05/18 00:20:39;;;;;;;10.43;3.25;;;5.70;99.90;;;;;;4901051;29;20048;-90
2023/05/18 00:23:31;;;;;;;9.97;2.80;;;5.30;99.90;;;;;;4901456;29;20044;-90
2023/05/18 00:26:15;;;;;;;9.63;2.80;;;5.50;99.90;;;;;;4904635;29;20077;-92
2023/05/18 00:28:40;;;;;;;9.77;2.92;;;6.10;99.90;;;;;;4899528;29;20045;-91
2023/05/18 00:31:25;;;;;;;11.65;3.10;;;5.60;99.90;;;;;;4899427;29;20644;-92
2023/05/18 00:33:51;;;;;;;11.37;3.00;;;4.40;99.90;;;;;;4899046;29;20525;-91
2023/05/18 00:36:16;;;;;;;15.17;3.30;;;5.50;99.90;;;;;;4899614;29;20049;-92
2023/05/18 00:38:42;;;;;;;12.13;3.20;;;5.80;99.90;;;;;;4900474;29;20045;-91
2023/05/18 00:41:07;;;;;;;10.73;3.30;;;5.60;99.90;;;;;;4898712;29;20504;-91
2023/05/18 00:43:46;;;;;;;13.27;3.20;;;5.30;99.90;;;;;;4899396;29;20397;-91
2023/05/18 00:46:12;;;;;;;13.50;3.00;;;5.30;99.90;;;;;;4904845;29;20460;-91
2023/05/18 00:48:57;;;;;;;12.33;3.40;;;6.20;99.90;;;;;;4900255;29;20048;-91
2023/05/18 00:51:23;;;;;;;10.40;3.10;;;5.00;99.90;;;;;;4900314;29;20052;-91
2023/05/18 00:53:51;;;;;;;9.67;2.90;;;5.10;99.90;;;;;;4900514;29;20057;-92
2023/05/18 00:56:35;;;;;;;10.20;2.77;;;5.70;99.90;;;;;;4904949;29;20048;-91
2023/05/18 00:59:04;;;;;;;11.30;3.10;;;4.70;99.90;;;;;;4905525;29;20096;-92
2023/05/18 01:01:35;;;;;;;11.57;3.00;;;4.80;99.90;;;;;;4902958;29;20069;-91
2023/05/18 01:04:13;;;;;;;11.43;3.10;;;4.60;99.90;;;;;;4900967;29;20100;-92
2023/05/18 01:06:40;;;;;;;10.97;3.27;;;5.10;99.90;;;;;;4900479;29;20048;-91
2023/05/18 01:09:28;;;;;;;12.57;3.50;;;6.00;99.90;;;;;;4879731;29;20108;-91
2023/05/18 01:12:24;;;;;;;12.70;3.07;;;4.60;99.90;;;;;;4883458;29;20060;-91
2023/05/18 01:18:13;;;;;;;11.53;3.50;;;4.50;99.90;;;;;;4898085;29;20401;-91
2023/05/18 01:20:45;;;;;;;12.93;3.60;;;4.40;99.90;;;;;;4900160;29;20128;-90
2023/05/18 01:23:51;;;;;;;10.50;3.37;;;5.40;99.90;;;;;;4909140;29;20036;-91
2023/05/18 01:26:40;;;;;;;11.97;3.60;;;4.40;99.90;;;;;;4905354;29;20499;-90
2023/05/18 01:29:19;;;;;;;14.47;3.40;;;4.10;99.90;;;;;;4899231;29;20552;-91
2023/05/18 01:31:45;;;;;;;12.70;3.70;;;4.50;99.90;;;;;;4899484;29;20045;-91
2023/05/18 01:34:31;;;;;;;11.27;3.73;;;5.30;99.90;;;;;;4898262;29;20052;-91
2023/05/18 01:37:03;;;;;;;11.43;3.53;;;4.20;99.90;;;;;;4897502;29;20060;-91
2023/05/18 01:39:29;;;;;;;13.30;3.70;;;4.10;99.90;;;;;;4898273;29;20082;-91
2023/05/18 01:42:20;;;;;;;10.90;3.50;;;4.40;99.90;;;;;;4905577;23;20052;-91
2023/05/18 01:45:14;;;;;;;13.93;3.80;;;3.60;99.90;;;;;;4899437;29;20056;-91
2023/05/18 01:47:45;;;;;;;14.20;4.00;;;4.60;99.90;;;;;;4899868;29;20099;-90
2023/05/18 01:50:36;;;;;;;13.70;4.37;;;4.80;99.90;;;;;;4899753;29;20052;-91
2023/05/18 01:53:37;;;;;;;11.87;3.80;;;4.00;99.90;;;;;;4907163;29;20140;-91
2023/05/18 01:56:07;;;;;;;11.23;4.10;;;3.90;99.90;;;;;;4898320;29;20048;-91
2023/05/18 01:58:52;;;;;;;13.37;4.10;;;3.90;99.90;;;;;;4899158;29;20101;-91
2023/05/18 02:01:18;;;;;;;13.40;4.07;;;4.10;99.90;;;;;;4900265;29;20134;-91
2023/05/18 02:03:44;;;;;;;11.70;4.10;;;3.70;99.90;;;;;;4898069;29;20056;-91
2023/05/18 02:10:00;;;;;;;13.60;4.10;;;3.80;99.90;;;;;;4880554;29;20085;-90
2023/05/18 02:12:26;;;;;;;14.13;4.00;;;4.20;99.90;;;;;;4881159;29;20056;-91
2023/05/18 02:14:54;;;;;;;14.53;4.10;;;4.30;99.90;;;;;;4899111;29;20052;-91
2023/05/18 02:17:44;;;;;;;12.30;3.83;;;3.50;99.90;;;;;;4897133;29;20084;-91
2023/05/18 02:20:32;;;;;;;11.07;4.00;;;3.60;99.90;;;;;;4896571;29;20048;-91
2023/05/18 02:22:58;;;;;;;10.10;3.87;;;3.60;99.90;;;;;;4898973;29;20041;-91
2023/05/18 02:25:24;;;;;;;10.30;3.97;;;3.30;99.90;;;;;;4898544;29;20096;-91
2023/05/18 02:28:11;;;;;;;10.13;3.80;;;3.50;99.90;;;;;;4896770;29;20072;-91
2023/05/18 02:30:37;;;;;;;11.50;4.13;;;;;;;;;;4897583;29;20047;-91
2023/05/18 02:33:25;;;;;;;13.60;4.50;;;3.40;99.90;;;;;;4897734;29;20127;-90
2023/05/18 02:35:59;;;;;;;14.43;4.20;;;4.10;99.90;;;;;;4898044;29;20408;-90
2023/05/18 02:38:28;;;;;;;12.57;3.97;;;3.10;99.90;;;;;;4898468;29;20051;-91
2023/05/18 02:40:59;;;;;;;12.20;4.43;;;4.00;99.90;;;;;;4893110;29;20061;-92
2023/05/18 02:43:25;;;;;;;11.27;4.03;;;3.90;99.90;;;;;;4896633;29;20500;-91
2023/05/18 02:45:51;;;;;;;12.30;4.07;;;3.10;99.90;;;;;;4898877;29;20056;-91
2023/05/18 02:48:19;;;;;;;13.33;4.00;;;3.60;99.90;;;;;;4896298;29;20081;-91
2023/05/18 02:50:48;;;;;;;11.90;4.07;;;3.20;99.90;;;;;;4897751;29;20051;-91
2023/05/18 02:53:14;;;;;;;15.53;4.20;;;4.10;99.90;;;;;;4898349;29;20048;-91
2023/05/18 02:56:02;;;;;;;10.63;3.90;;;4.00;99.90;;;;;;4918043;29;20113;-92
2023/05/18 02:58:27;;;;;;;10.57;3.73;;;3.00;99.90;;;;;;4901834;29;20062;-91
2023/05/18 03:01:12;;;;;;;12.77;4.00;;;2.90;99.90;;;;;;4897802;29;20485;-91
2023/05/18 03:03:40;;;;;;;12.13;3.70;;;3.50;99.90;;;;;;4897221;29;20044;-92
2023/05/18 03:06:07;;;;;;;13.60;3.90;;;3.10;99.90;;;;;;4903738;23;20053;-91
2023/05/18 03:08:33;;;;;;;11.60;4.70;;;3.40;99.90;;;;;;4897273;29;20051;-91
2023/05/18 03:11:12;;;;;;;12.00;4.73;;;3.00;99.90;;;;;;4897442;29;20400;-90
2023/05/18 03:13:44;;;;;;;12.47;4.13;;;3.00;99.90;;;;;;4897129;29;20413;-91
2023/05/18 03:19:41;;;;;;;11.73;4.53;;;2.90;99.90;;;;;;4896661;29;20056;-92
2023/05/18 03:22:07;;;;;;;11.57;4.40;;;2.90;99.90;;;;;;4897417;29;20047;-92
2023/05/18 03:24:39;;;;;;;12.70;4.47;;;3.80;99.90;;;;;;4897731;29;20512;-92
2023/05/18 03:27:06;;;;;;;16.73;4.80;;;2.60;99.90;;;;;;4897107;29;20056;-93
2023/05/18 03:29:53;;;;;;;12.50;4.37;;;3.00;99.90;;;;;;4896836;29;20058;-92
2023/05/18 03:32:19;;;;;;;14.37;4.53;;;3.50;99.90;;;;;;4897445;29;20403;-91
2023/05/18 03:35:03;;;;;;;14.17;4.40;;;3.60;99.90;;;;;;4897305;29;20059;-92
2023/05/18 03:37:35;;;;;;;;;;;3.20;99.90;;;;;;4899198;29;20087;-91
2023/05/18 03:40:12;;;;;;;12.77;4.35;;;2.60;99.90;;;;;;4898416;29;19924;-91
2023/05/18 03:42:56;;;;;;;10.40;4.40;;;2.80;99.90;;;;;;4897592;29;20509;-91
2023/05/18 03:45:22;;;;;;;;;;;3.40;99.90;;;;;;4896588;29;20083;-92
2023/05/18 03:47:47;;;;;;;11.47;4.10;;;2.60;99.90;;;;;;4898389;29;19924;-91
2023/05/18 03:50:13;;;;;;;15.20;4.60;;;;;;;;;;4896285;29;20063;-91
2023/05/18 03:52:41;;;;;;;11.40;4.30;;;2.90;99.90;;;;;;4896399;29;20060;-91
2023/05/18 03:55:07;;;;;;;12.03;4.30;;;4.30;99.90;;;;;;4896609;29;20135;-91
2023/05/18 03:57:32;;;;;;;16.77;4.50;;;3.00;99.90;;;;;;4896561;29;20144;-92
2023/05/18 03:59:58;;;;;;;14.80;4.33;;;3.80;99.90;;;;;;4896405;29;20558;-91
2023/05/18 04:02:30;;;;;;;11.27;4.13;;;2.90;99.90;;;;;;4887147;23;20417;-92
2023/05/18 04:05:02;;;;;;;11.37;4.40;;;3.10;99.90;;;;;;4856308;29;20057;-91
2023/05/18 04:07:28;;;;;;;14.70;4.73;;;3.10;99.90;;;;;;4859038;29;20074;-91
2023/05/18 04:10:11;;;;;;;11.87;4.27;;;3.00;99.90;;;;;;4859453;29;20049;-90
2023/05/18 04:12:38;;;;;;;12.88;4.50;;;3.10;99.90;;;;;;4870495;29;20101;-91
2023/05/18 04:15:04;;;;;;;15.73;4.73;;;3.00;99.90;;;;;;4868851;29;20046;-91
2023/05/18 04:17:29;;;;;;;15.03;4.87;;;3.20;99.90;;;;;;4867213;29;20056;-91
2023/05/18 04:24:02;;;;;;;13.57;4.23;;;3.50;99.90;;;;;;4839442;29;20040;-91
2023/05/18 04:26:41;;;;;;;12.70;4.60;;;2.80;99.90;;;;;;4855693;29;20526;-91
2023/05/18 04:29:12;;;;;;;13.27;4.30;;;3.10;99.90;;;;;;4835061;29;20140;-91
2023/05/18 04:31:43;;;;;;;12.90;4.13;;;4.90;99.90;;;;;;4824710;29;20053;-91
2023/05/18 04:34:25;;;;;;;13.37;4.07;;;4.00;99.90;;;;;;4838727;29;20046;-91
2023/05/18 04:36:53;;;;;;;12.70;4.20;;;3.60;99.90;;;;;;4825368;29;20050;-91
2023/05/18 04:39:19;;;;;;;11.87;4.60;;;3.30;99.90;;;;;;4860072;29;20050;-91
2023/05/18 04:42:03;;;;;;;11.33;4.40;;;3.80;99.90;;;;;;4860139;29;20057;-91
2023/05/18 04:44:31;;;;;;;13.00;4.38;;;3.90;99.90;;;;;;4859126;29;20093;-91
2023/05/18 04:46:56;;;;;;;15.97;4.50;;;3.70;99.90;;;;;;4860323;29;20439;-91
2023/05/18 04:49:31;;;;;;;12.87;4.23;;;4.10;99.90;;;;;;4858799;29;20105;-90
2023/05/18 04:52:00;;;;;;;11.97;4.07;;;3.90;99.90;;;;;;4859293;29;20186;-91
2023/05/18 04:54:29;;;;;;;12.13;4.40;;;4.40;99.90;;;;;;4857828;29;20108;-92
2023/05/18 05:00:52;;;;;;;14.50;4.27;;;4.20;99.90;;;;;;4863423;29;20059;-91
2023/05/18 05:03:36;;;;;;;9.77;3.87;;;3.70;99.90;;;;;;4818901;29;20046;-91
2023/05/18 05:06:01;;;;;;;14.47;4.30;;;4.40;99.90;;;;;;4852985;29;20061;-92
2023/05/18 05:08:27;;;;;;;12.87;4.17;;;4.50;99.90;;;;;;4861163;29;20081;-91
2023/05/18 05:11:00;;;;;;;12.10;4.03;;;4.80;99.90;;;;;;4863631;29;20117;-91
2023/05/18 05:13:26;;;;;;;12.63;4.00;;;3.90;99.90;;;;;;4862899;29;20062;-90
2023/05/18 05:15:52;;;;;;;13.20;4.13;;;4.90;99.90;;;;;;4862872;29;20053;-90
2023/05/18 05:18:18;;;;;;;12.97;4.00;;;5.60;99.90;;;;;;4863174;29;20101;-90
2023/05/18 05:21:02;;;;;;;12.50;4.13;;;5.10;99.90;;;;;;4862366;29;20053;-91
2023/05/18 05:23:28;;;;;;;16.20;4.10;;;5.30;99.90;;;;;;4862177;29;20125;-91
2023/05/18 05:26:30;;;;;;;10.93;3.60;;;6.10;99.90;;;;;;4863288;29;20144;-91
2023/05/18 05:28:56;;;;;;;10.67;3.60;;;5.10;99.90;;;;;;4862507;29;20052;-90
2023/05/18 05:31:28;;;;;;;13.40;3.88;;;5.90;99.90;;;;;;4862610;29;20394;-91
2023/05/18 05:33:53;;;;;;;10.60;3.70;;;6.30;99.90;;;;;;4861685;29;20503;-90
2023/05/18 05:36:22;;;;;;;13.90;4.43;;;5.20;99.90;;;;;;4860551;29;20113;-91
2023/05/18 05:38:54;;;;;;;12.20;3.80;;;5.90;99.90;;;;;;4862640;29;20069;-91
2023/05/18 05:41:21;;;;;;;13.73;3.43;;;6.30;99.90;;;;;;4869027;29;20435;-91
2023/05/18 05:43:47;;;;;;;12.77;3.80;;;7.20;99.90;;;;;;4877414;29;20049;-91
2023/05/18 05:46:25;;;;;;;11.88;3.70;;;6.40;99.90;;;;;;4861508;29;20044;-91
2023/05/18 05:48:50;;;;;;;10.85;3.33;;;6.20;99.90;;;;;;4862572;29;20049;-91
2023/05/18 05:51:28;;;;;;;11.95;3.97;;;6.80;99.90;;;;;;4861535;29;20049;-90
2023/05/18 05:53:54;;;;;;;12.77;3.38;;;6.40;99.90;;;;;;4861487;29;20072;-91
2023/05/18 05:56:38;;;;;;;11.55;3.33;;;7.00;99.90;;;;;;4863000;29;20482;-92
2023/05/18 05:59:04;;;;;;;12.55;3.63;;;7.10;99.90;;;;;;4883508;23;20038;-90
2023/05/18 06:01:31;;;;;;;10.05;3.35;;;8.50;99.90;;;;;;4900561;29;20137;-91
2023/05/18 06:03:56;;;;;;;11.75;3.22;;;7.10;99.90;;;;;;4900020;29;20059;-90
2023/05/18 06:06:38;;;;;;;12.88;3.45;;;7.30;99.90;;;;;;4897092;29;20483;-90
2023/05/18 06:09:04;;;;;;;11.85;3.47;;;7.40;99.90;;;;;;4898260;29;20516;-91
2023/05/18 06:11:35;;;;;;;13.35;3.60;;;7.10;99.90;;;;;;4897257;29;20041;-90
2023/05/18 06:14:01;;;;;;;11.93;3.80;;;8.00;99.90;;;;;;4905375;23;20056;-90
2023/05/18 06:16:27;;;;;;;10.65;3.65;;;8.20;99.90;;;;;;4859081;29;20183;-87
2023/05/18 06:18:52;;;;;;;12.85;3.85;;;7.90;99.90;;;;;;4860821;29;20081;-82
2023/05/18 06:21:26;;;;;;;10.85;3.55;;;8.70;99.90;;;;;;4861242;29;20503;-82
2023/05/18 06:23:52;;;;;;;12.30;3.45;;;8.20;99.90;;;;;;4875583;29;20095;-82
2023/05/18 06:26:17;;;;;;;11.43;3.40;;;9.00;99.90;;;;;;4874562;29;20072;-81
2023/05/18 06:28:43;;;;;;;8.65;3.10;;;9.40;99.90;;;;;;4861631;29;20053;-82
2023/05/18 06:31:18;;;;;;;9.00;2.80;;;9.20;99.90;;;;;;4874834;29;20462;-82
2023/05/18 06:34:02;;;;;;;10.50;2.28;;;9.40;99.90;;;;;;4874797;29;20446;-82
2023/05/18 06:36:27;;;;;;;;;;;9.70;99.90;;;;;;4860365;29;20508;-82
2023/05/18 06:38:53;;;;;;;11.40;2.92;;;9.60;99.90;;;;;;4860932;29;19924;-82
2023/05/18 06:41:24;;;;;;;10.02;2.70;;;8.70;99.90;;;;;;4860237;29;20049;-82
2023/05/18 06:43:50;;;;;;;10.90;2.67;;;9.20;99.90;;;;;;4878594;23;20413;-82
2023/05/18 06:46:41;;;;;;;9.52;3.08;;;8.00;99.90;;;;;;4896430;29;20078;-82
2023/05/18 06:49:22;;;;;;;8.93;2.40;;;8.50;99.90;;;;;;4884866;29;20053;-83
2023/05/18 06:51:48;;;;;;;10.73;2.53;;;8.10;99.90;;;;;;4896009;29;20048;-84
2023/05/18 06:54:14;;;;;;;11.25;2.35;;;9.90;99.90;;;;;;4895509;29;20048;-82
2023/05/18 06:56:40;;;;;;;11.77;2.35;;;10.20;99.90;;;;;;4896769;29;20106;-82
2023/05/18 06:59:06;;;;;;;9.25;2.33;;;10.00;99.90;;;;;;4897498;29;20044;-82
2023/05/18 07:01:32;;;;;;;10.18;2.58;;;10.00;99.90;;;;;;4895962;29;20140;-82
2023/05/18 07:03:58;;;;;;;8.80;2.28;;;8.90;99.90;;;;;;4897063;29;20104;-81
2023/05/18 07:06:29;;;;;;;8.82;2.47;;;8.90;99.90;;;;;;4896057;29;20550;-81
2023/05/18 07:09:04;;;;;;;8.60;2.33;;;9.50;99.90;;;;;;4897681;29;20048;-87
2023/05/18 07:11:30;;;;;;;7.72;2.40;;;9.00;99.90;;;;;;4879430;29;20068;-82
2023/05/18 07:14:27;;;;;;;9.45;2.63;;;8.80;99.90;;;;;;4878772;29;20041;-82
2023/05/18 07:16:52;;;;;;;13.23;2.75;;;8.40;99.90;;;;;;4878058;29;20045;-83
2023/05/18 07:19:30;;;;;;;9.27;2.28;;;9.30;99.90;;;;;;4879226;29;20048;-83
2023/05/18 07:22:17;;;;;;;10.63;2.85;;;10.40;99.90;;;;;;4894812;29;20378;-83
2023/05/18 07:24:46;;;;;;;12.30;2.40;;;9.30;99.90;;;;;;4897868;29;20051;-89
2023/05/18 07:27:33;;;;;;;9.90;2.88;;;10.50;99.90;;;;;;4899055;29;20051;-86
2023/05/18 07:30:39;;;;;;;10.10;2.78;;;9.70;99.90;;;;;;4895829;29;20048;-84
2023/05/18 07:33:27;;;;;;;9.13;2.83;;;9.70;99.90;;;;;;4896710;29;20433;-83
2023/05/18 07:35:53;;;;;;;9.90;2.40;;;9.40;99.90;;;;;;4855139;29;20147;-83
2023/05/18 07:42:38;;;;;;;9.48;2.30;;;10.30;99.90;;;;;;4857853;29;20071;-82
2023/05/18 07:53:02;;;;;;;8.60;2.28;;;9.40;99.90;;;;;;4896203;29;20133;-84
2023/05/18 07:55:46;;;;;;;8.52;2.28;;;11.30;99.90;;;;;;4889658;29;20053;-84
2023/05/18 08:09:14;;;;;;;8.25;2.30;;;10.50;99.90;;;;;;4895268;29;20449;-83
2023/05/18 08:11:41;;;;;;;12.27;2.58;;;11.90;99.90;;;;;;4883636;29;20049;-84
2023/05/18 08:14:28;;;;;;;10.77;2.80;;;11.70;99.90;;;;;;4885132;29;20037;-80
2023/05/18 08:17:03;;;;;;;9.88;2.50;;;10.60;99.90;;;;;;4888507;29;20052;-81
2023/05/18 08:19:46;;;;;;;11.02;2.40;;;10.90;99.90;;;;;;4894714;29;20063;-81
2023/05/18 08:22:30;;;;;;;11.48;2.75;;;11.60;99.90;;;;;;4887060;29;20185;-81
2023/05/18 08:25:11;;;;;;;12.07;2.80;;;11.60;99.90;;;;;;4878607;29;20052;-81
2023/05/18 08:27:43;;;;;;;9.15;2.42;;;11.10;99.90;;;;;;4893938;29;20108;-81
2023/05/18 08:30:09;;;;;;;11.82;2.60;;;10.80;99.90;;;;;;4878949;29;20041;-81
2023/05/18 08:32:53;;;;;;;11.68;2.50;;;10.90;99.90;;;;;;4887382;29;20130;-82
2023/05/18 08:35:28;;;;;;;10.27;2.50;;;12.30;99.90;;;;;;4882124;29;20048;-80
2023/05/18 08:38:03;;;;;;;12.13;2.65;;;11.20;99.90;;;;;;4879875;29;20049;-81
2023/05/18 08:40:40;;;;;;;10.32;2.72;;;11.10;99.90;;;;;;4886828;29;20049;-80
2023/05/18 08:43:41;;;;;;;11.13;2.60;;;12.50;99.90;;;;;;4886895;29;20037;-80
2023/05/18 08:46:12;;;;;;;11.00;2.80;;;11.50;99.90;;;;;;4891377;29;20412;-81
2023/05/18 08:52:45;;;;;;;9.98;2.72;;;11.30;99.90;;;;;;4899583;29;20119;-80
2023/05/18 08:55:11;;;;;;;10.90;3.58;;;11.90;99.90;;;;;;4883657;29;20045;-80
2023/05/18 08:57:38;;;;;;;6.97;2.40;;;12.00;99.90;;;;;;4899890;29;20037;-80
2023/05/18 09:00:05;;;;;;;9.55;2.40;;;12.10;99.90;;;;;;4897747;29;20044;-81
2023/05/18 09:02:32;;;;;;;10.93;2.40;;;12.20;99.90;;;;;;4898241;29;20139;-80
2023/05/18 09:04:58;;;;;;;10.10;2.70;;;12.20;99.90;;;;;;4898466;29;20048;-80
2023/05/18 09:07:26;;;;;;;10.48;2.53;;;12.20;99.90;;;;;;4897580;29;20100;-80
2023/05/18 09:09:56;;;;;;;9.38;2.83;;;12.00;99.90;;;;;;4898170;29;20579;-81
2023/05/18 09:12:22;;;;;;;10.23;2.30;;;11.90;99.90;;;;;;4896253;29;20045;-82
2023/05/18 09:14:48;;;;;;;10.07;2.63;;;11.90;99.90;;;;;;4899348;29;20044;-81
2023/05/18 09:17:14;;;;;;;11.40;2.47;;;11.90;99.90;;;;;;4897959;29;20457;-81
2023/05/18 09:19:39;;;;;;;9.07;2.70;;;12.20;99.90;;;;;;4899221;29;20052;-78
2023/05/18 09:22:05;;;;;;;11.63;2.75;;;12.00;99.90;;;;;;4897596;29;20045;-81
2023/05/18 09:24:32;;;;;;;11.13;2.95;;;12.20;99.90;;;;;;4898201;29;20135;-80
2023/05/18 09:26:58;;;;;;;9.13;2.50;;;12.40;99.90;;;;;;4897752;29;20044;-80
2023/05/18 09:29:24;;;;;;;10.15;2.70;;;12.30;99.90;;;;;;4897307;29;20471;-80
2023/05/18 09:31:50;;;;;;;9.38;3.00;;;12.20;99.90;;;;;;4898144;29;20053;-81
2023/05/18 09:34:20;;;;;;;11.20;3.85;;;12.20;99.90;;;;;;4898965;29;20499;-80
2023/05/18 09:36:51;;;;;;;13.15;3.00;;;12.60;99.90;;;;;;4898662;29;20049;-80
2023/05/18 09:39:17;;;;;;;8.02;2.35;;;12.80;99.90;;;;;;4897520;29;20511;-80
2023/05/18 09:41:43;;;;;;;10.40;2.85;;;13.40;99.90;;;;;;4897609;29;20052;-81
2023/05/18 09:44:11;;;;;;;10.38;2.72;;;13.30;99.80;;;;;;4896497;29;20040;-80
2023/05/18 09:46:38;;;;;;;9.77;2.58;;;13.20;99.70;;;;;;4891806;29;20048;-80
2023/05/18 09:49:05;;;;;;;10.75;3.05;;;13.10;99.50;;;;;;4898951;29;20053;-82
2023/05/18 09:51:37;;;;;;;10.38;3.05;;;13.00;99.80;;;;;;4897052;29;20583;-81
2023/05/18 09:54:05;;;;;;;9.38;3.13;;;12.90;99.20;;;;;;4884416;29;20041;-81
2023/05/18 09:56:35;;;;;;;10.02;3.00;;;12.90;99.00;;;;;;4890163;29;20048;-81
2023/05/18 09:59:11;;;;;;;11.32;2.80;;;13.00;99.40;;;;;;4900725;29;20057;-84
2023/05/18 10:01:54;;;;;;;9.07;2.47;;;13.30;99.00;;;;;;4896586;29;20362;-82
2023/05/18 10:04:20;;;;;;;12.13;3.00;;;13.80;98.60;;;;;;4896877;29;20044;-82
2023/05/18 10:06:49;;;;;;;9.48;2.70;;;14.40;99.30;;;;;;4898023;29;20135;-83
2023/05/18 10:09:17;;;;;;;10.25;2.70;;;14.20;98.60;;;;;;4899113;29;20073;-82
2023/05/18 10:11:43;;;;;;;9.48;2.70;;;14.30;98.60;;;;;;4897259;29;20048;-82
2023/05/18 10:14:12;;;;;;;9.52;2.85;;;14.40;98.50;;;;;;4897700;29;20048;-82
2023/05/18 10:16:39;;;;;;;9.75;2.80;;;14.60;98.10;;;;;;4897734;29;20099;-81
2023/05/18 10:19:07;;;;;;;10.35;2.90;;;14.50;97.60;;;;;;4896651;29;20045;-82
2023/05/18 10:21:35;;;;;;;9.57;2.83;;;14.60;97.80;;;;;;4897915;29;20095;-82
2023/05/18 10:24:04;;;;;;;12.27;2.88;;;15.30;97.60;;;;;;4898802;29;20100;-82
2023/05/18 10:26:35;;;;;;;13.05;2.60;;;14.80;97.20;;;;;;4897900;29;20060;-82
2023/05/18 10:29:03;;;;;;;8.50;2.60;;;14.90;96.10;;;;;;4899089;29;20188;-81
2023/05/18 10:31:30;;;;;;;9.75;2.63;;;14.90;96.80;;;;;;4897765;29;20052;-81
2023/05/18 10:33:58;;;;;;;12.80;2.92;;;15.50;96.80;;;;;;4898811;29;20048;-80
2023/05/18 10:36:28;;;;;;;9.82;3.08;;;15.70;96.50;;;;;;4897099;29;20053;-81
2023/05/18 10:38:56;;;;;;;10.93;3.10;;;15.10;96.80;;;;;;4896683;29;20049;-80
2023/05/18 10:41:23;;;;;;;10.23;2.85;;;15.30;96.50;;;;;;4897184;29;20056;-83
2023/05/18 10:43:49;;;;;;;9.57;3.15;;;15.50;96.70;;;;;;4897316;29;20405;-82
2023/05/18 10:46:15;;;;;;;9.25;2.70;;;15.60;96.70;;;;;;4897642;29;20413;-83
2023/05/18 10:48:44;;;;;;;9.20;2.85;;;15.90;96.60;;;;;;4896853;29;20052;-83
2023/05/18 10:51:11;;;;;;;9.32;3.10;;;15.70;96.20;;;;;;4896976;29;20056;-82
2023/05/18 10:53:38;;;;;;;8.80;2.88;;;15.70;95.80;;;;;;4896354;29;20041;-85
2023/05/18 10:56:19;;;;;;;9.77;2.85;;;16.50;95.60;;;;;;4896700;29;20049;-84
2023/05/18 10:59:06;;;;;;;7.68;2.70;;;15.70;94.50;;;;;;4897312;29;20051;-83
2023/05/18 11:01:32;;;;;;;10.98;2.97;;;15.90;95.40;;;;;;4896281;29;20131;-83
2023/05/18 11:04:48;;;;;;;12.73;3.33;;;16.60;96.00;;;;;;4896687;29;20127;-83
2023/05/18 11:07:35;;;;;;;11.07;3.10;;;16.00;95.00;;;;;;4893737;29;20046;-82
2023/05/18 11:12:51;;;;;;;9.00;2.88;;;16.30;94.90;;;;;;4898430;29;20135;-82
2023/05/18 11:15:57;;;;;;;10.95;3.17;;;16.30;94.70;;;;;;4895678;29;20048;-82
2023/05/18 11:18:44;;;;;;;9.50;2.88;;;15.50;94.10;;;;;;4896486;29;20056;-82
2023/05/18 11:21:20;;;;;;;9.57;2.60;;;16.00;94.70;;;;;;4897182;29;20053;-82
2023/05/18 11:24:23;;;;;;;11.10;3.28;;;16.20;94.30;;;;;;4896625;29;20048;-81
2023/05/18 11:26:51;;;;;;;8.67;3.00;;;16.50;94.90;;;;;;4896615;29;20115;-82
2023/05/18 11:29:29;;;;;;;9.48;3.20;;;16.60;94.50;;;;;;4895440;29;20391;-82
2023/05/18 11:31:55;;;;;;;9.75;3.10;;;16.40;94.60;;;;;;4896633;29;20504;-81
2023/05/18 11:34:48;;;;;;;9.63;3.05;;;16.60;94.90;;;;;;4897823;29;20080;-82
2023/05/18 11:37:46;;;;;;;8.48;3.40;;;16.90;94.50;;;;;;4896139;29;20045;-82
2023/05/18 11:40:38;;;;;;;10.07;2.92;;;17.00;94.90;;;;;;4897322;29;20049;-82
2023/05/18 11:43:04;;;;;;;11.27;3.13;;;17.40;94.50;;;;;;4893480;29;20458;-82
2023/05/18 11:45:32;;;;;;;9.52;3.45;;;17.50;94.30;;;;;;4897347;29;20056;-81
2023/05/18 11:48:01;;;;;;;9.10;3.00;;;17.40;93.80;;;;;;4896469;29;20140;-82
2023/05/18 11:50:29;;;;;;;12.77;3.20;;;17.40;93.50;;;;;;4895134;29;20524;-82
2023/05/18 11:52:58;;;;;;;9.63;3.00;;;17.20;93.20;;;;;;4897510;29;20088;-82
2023/05/18 11:55:37;;;;;;;10.43;3.20;;;17.10;93.20;;;;;;4903100;23;20057;-82
2023/05/18 11:58:03;;;;;;;9.32;2.80;;;17.10;93.50;;;;;;4878186;29;20041;-82
2023/05/18 12:00:30;;;;;;;8.82;2.70;;;17.10;93.50;;;;;;4877297;29;20057;-81
2023/05/18 12:02:56;;;;;;;11.02;3.00;;;17.60;93.70;;;;;;4878206;29;20034;-81
2023/05/18 12:05:22;;;;;;;9.93;3.10;;;17.80;93.30;;;;;;4877653;29;20056;-82
2023/05/18 12:07:53;;;;;;;10.98;3.10;;;17.50;92.90;;;;;;4880332;29;20056;-82
2023/05/18 12:10:20;;;;;;;8.18;3.03;;;18.20;92.90;;;;;;4880841;29;20036;-82
2023/05/18 12:12:51;;;;;;;10.95;3.17;;;17.70;93.40;;;;;;4881101;29;20055;-82
2023/05/18 12:15:21;;;;;;;10.30;3.40;;;17.80;93.10;;;;;;4880321;29;20057;-82
2023/05/18 12:17:50;;;;;;;8.93;3.00;;;17.60;92.60;;;;;;4880508;29;20045;-82
2023/05/18 12:20:18;;;;;;;11.85;3.25;;;17.60;92.60;;;;;;4880922;29;20045;-83
2023/05/18 12:22:50;;;;;;;8.85;2.83;;;17.70;93.30;;;;;;4881072;29;20108;-83
2023/05/18 12:25:16;;;;;;;9.45;2.97;;;17.80;93.40;;;;;;4881174;29;20052;-83
2023/05/18 12:27:44;;;;;;;9.07;3.00;;;18.30;93.60;;;;;;4882725;29;20051;-82
2023/05/18 12:30:11;;;;;;;8.00;2.47;;;18.40;93.10;;;;;;4880442;29;20082;-83
2023/05/18 12:32:37;;;;;;;9.90;2.72;;;18.60;93.10;;;;;;4881556;29;20101;-82
2023/05/18 12:35:04;;;;;;;8.43;3.13;;;18.80;92.80;;;;;;4881005;29;20081;-82
2023/05/18 12:37:30;;;;;;;9.18;2.80;;;18.80;92.50;;;;;;4881519;29;20064;-82
2023/05/18 12:39:56;;;;;;;10.07;3.08;;;18.80;92.30;;;;;;4881169;29;20053;-82
2023/05/18 12:42:22;;;;;;;11.95;3.20;;;18.90;92.10;;;;;;4880582;29;20048;-82
2023/05/18 12:44:49;;;;;;;7.57;2.80;;;18.90;91.80;;;;;;4882252;29;20569;-81
2023/05/18 12:47:15;;;;;;;8.73;3.03;;;18.70;91.20;;;;;;4880987;29;20061;-81
2023/05/18 12:49:47;;;;;;;8.95;2.90;;;19.50;92.20;;;;;;4878471;29;20100;-81
2023/05/18 12:52:14;;;;;;;9.73;3.10;;;19.00;91.80;;;;;;4879998;29;20049;-81
2023/05/18 12:54:59;;;;;;;8.48;3.10;;;19.40;91.80;;;;;;4881030;29;20073;-82
2023/05/18 12:57:26;;;;;;;8.98;3.03;;;19.10;91.40;;;;;;4879657;29;20569;-82
2023/05/18 12:59:53;;;;;;;10.40;2.88;;;18.90;91.30;;;;;;4880568;29;20052;-82
2023/05/18 13:02:45;;;;;;;9.77;3.35;;;18.90;91.50;;;;;;4880805;29;20037;-82
2023/05/18 13:05:11;;;;;;;8.13;2.85;;;18.90;91.40;;;;;;4877486;29;20569;-82
2023/05/18 13:07:42;;;;;;;9.57;2.80;;;19.20;91.90;;;;;;4879446;29;20405;-82
2023/05/18 13:10:15;;;;;;;9.43;3.13;;;19.40;92.00;;;;;;4879552;29;20041;-82
2023/05/18 13:12:43;;;;;;;9.88;3.42;;;19.60;91.60;;;;;;4881407;29;20078;-82
2023/05/18 13:15:16;;;;;;;9.10;3.05;;;19.60;91.40;;;;;;4878937;29;20078;-82
2023/05/18 13:18:03;;;;;;;9.53;3.23;;;19.70;91.80;;;;;;4879849;29;20144;-81
2023/05/18 13:20:34;;;;;;;9.65;3.00;;;19.90;89.80;;;;;;4879242;29;20045;-83
2023/05/18 13:23:08;;;;;;;14.15;3.13;;;20.10;91.60;;;;;;4879983;29;20093;-84
2023/05/18 13:25:34;;;;;;;10.98;3.03;;;20.20;90.20;;;;;;4881112;29;20077;-82
2023/05/18 13:28:00;;;;;;;8.52;2.88;;;20.10;91.20;;;;;;4880638;29;20045;-84
2023/05/18 13:30:26;;;;;;;8.20;2.97;;;20.10;91.10;;;;;;4880820;29;20077;-82
2023/05/18 13:32:51;;;;;;;9.60;2.72;;;20.10;90.90;;;;;;4879650;29;20115;-82
2023/05/18 13:35:20;;;;;;;9.30;2.90;;;20.10;90.70;;;;;;4878410;29;20063;-83
2023/05/18 13:37:47;;;;;;;9.82;2.75;;;20.10;91.00;;;;;;4880998;29;20049;-82
2023/05/18 13:40:15;;;;;;;10.38;3.03;;;20.40;91.10;;;;;;4879064;29;20451;-83
2023/05/18 13:42:41;;;;;;;11.93;2.97;;;20.20;90.60;;;;;;4880094;29;20037;-82
2023/05/18 13:45:08;;;;;;;9.93;3.05;;;20.20;90.50;;;;;;4879172;29;20044;-82
2023/05/18 13:47:33;;;;;;;10.98;2.90;;;20.30;90.90;;;;;;4879481;29;20055;-82
2023/05/18 13:49:59;;;;;;;10.80;3.20;;;20.30;91.00;;;;;;4880059;29;20045;-82
2023/05/18 13:52:25;;;;;;;10.65;3.25;;;20.40;91.00;;;;;;4878376;29;20055;-82
2023/05/18 13:54:50;;;;;;;9.82;2.83;;;20.40;90.60;;;;;;4878779;29;20037;-82
2023/05/18 13:57:16;;;;;;;9.90;2.70;;;20.40;90.80;;;;;;4877990;29;20524;-83
2023/05/18 13:59:42;;;;;;;10.43;2.80;;;20.40;90.70;;;;;;4878998;29;20049;-82